createdAt,value
2018-05-27T00:00:14.633Z,22.49
2018-05-27T00:02:42.890Z,22.49
2018-05-27T00:05:11.170Z,22.49
2018-05-27T00:07:39.446Z,22.37
2018-05-27T00:10:07.739Z,22.32
2018-05-27T00:12:36.015Z,22.02
2018-05-27T00:15:04.312Z,21.89
2018-05-27T00:17:32.813Z,21.82
2018-05-27T00:20:01.085Z,21.96
2018-05-27T00:22:29.360Z,21.88
2018-05-27T00:24:57.633Z,22.03
2018-05-27T00:27:25.910Z,21.98
2018-05-27T00:29:54.181Z,21.93
2018-05-27T00:32:22.465Z,21.89
2018-05-27T00:34:50.748Z,21.80
2018-05-27T00:37:19.021Z,21.57
2018-05-27T00:39:47.293Z,21.66
2018-05-27T00:42:15.598Z,21.66
2018-05-27T00:44:43.878Z,21.61
2018-05-27T00:47:12.155Z,21.60
2018-05-27T00:49:40.434Z,21.47
2018-05-27T00:52:08.709Z,21.51
2018-05-27T00:54:36.993Z,21.47
2018-05-27T00:57:05.262Z,21.51
2018-05-27T00:59:33.539Z,21.51
2018-05-27T01:02:01.826Z,21.52
2018-05-27T01:04:30.107Z,21.46
2018-05-27T01:06:58.373Z,21.25
2018-05-27T01:09:26.649Z,21.09
2018-05-27T01:11:54.950Z,20.91
2018-05-27T01:14:23.229Z,20.86
2018-05-27T01:16:51.529Z,20.89
2018-05-27T01:19:19.840Z,20.98
2018-05-27T01:21:48.124Z,20.95
2018-05-27T01:24:16.402Z,20.96
2018-05-27T01:26:44.678Z,20.95
2018-05-27T01:29:12.946Z,21.07
2018-05-27T01:34:38.229Z,20.93
2018-05-27T01:37:06.513Z,21.09
2018-05-27T01:39:34.781Z,21.12
2018-05-27T01:42:03.058Z,21.15
2018-05-27T01:44:31.334Z,21.07
2018-05-27T01:46:59.627Z,20.82
2018-05-27T01:49:27.893Z,20.55
2018-05-27T01:51:56.198Z,20.73
2018-05-27T01:54:24.460Z,20.76
2018-05-27T01:56:52.726Z,20.76
2018-05-27T01:59:21.009Z,20.49
2018-05-27T02:01:49.290Z,20.70
2018-05-27T02:04:17.577Z,20.59
2018-05-27T02:06:45.849Z,20.67
2018-05-27T02:09:14.119Z,20.68
2018-05-27T02:11:42.429Z,20.71
2018-05-27T02:14:10.693Z,20.43
2018-05-27T02:16:38.973Z,20.53
2018-05-27T02:19:07.249Z,20.53
2018-05-27T02:21:35.519Z,20.51
2018-05-27T02:24:03.802Z,20.70
2018-05-27T02:26:32.074Z,20.73
2018-05-27T02:29:00.353Z,20.41
2018-05-27T02:31:28.618Z,20.32
2018-05-27T02:33:56.901Z,20.42
2018-05-27T02:36:25.177Z,20.23
2018-05-27T02:38:53.449Z,20.26
2018-05-27T02:41:22.104Z,20.38
2018-05-27T02:43:50.377Z,20.36
2018-05-27T02:46:18.649Z,20.17
2018-05-27T02:48:46.933Z,20.16
2018-05-27T02:51:15.202Z,20.29
2018-05-27T02:53:43.843Z,20.39
2018-05-27T02:56:12.114Z,20.01
2018-05-27T02:58:40.386Z,20.01
2018-05-27T03:01:08.666Z,20.13
2018-05-27T03:03:36.938Z,20.03
2018-05-27T03:06:05.217Z,20.26
2018-05-27T03:08:33.484Z,20.29
2018-05-27T03:11:01.766Z,20.31
2018-05-27T03:13:30.042Z,20.27
2018-05-27T03:15:58.302Z,20.19
2018-05-27T03:18:26.601Z,20.18
2018-05-27T03:20:54.850Z,20.03
2018-05-27T03:23:23.265Z,19.60
2018-05-27T03:25:51.518Z,19.46
2018-05-27T03:28:19.785Z,19.37
2018-05-27T03:30:48.071Z,19.47
2018-05-27T03:33:16.345Z,19.61
2018-05-27T03:35:44.629Z,19.47
2018-05-27T03:38:12.894Z,19.51
2018-05-27T03:40:42.129Z,19.75
2018-05-27T03:43:10.398Z,19.76
2018-05-27T03:45:38.670Z,19.58
2018-05-27T03:48:06.954Z,19.63
2018-05-27T03:50:35.225Z,19.44
2018-05-27T03:53:03.506Z,19.43
2018-05-27T03:55:31.790Z,19.60
2018-05-27T03:58:01.173Z,19.65
2018-05-27T04:00:29.441Z,19.54
2018-05-27T04:02:57.706Z,19.65
2018-05-27T04:05:37.729Z,19.50
2018-05-27T04:08:17.802Z,19.43
2018-05-27T04:10:46.085Z,19.34
2018-05-27T04:13:14.397Z,19.46
2018-05-27T04:15:42.678Z,19.57
2018-05-27T04:18:10.948Z,19.40
2018-05-27T04:20:39.224Z,19.23
2018-05-27T04:23:07.506Z,19.59
2018-05-27T04:25:35.775Z,19.59
2018-05-27T04:28:04.053Z,19.77
2018-05-27T04:30:32.325Z,19.72
2018-05-27T04:33:00.603Z,19.92
2018-05-27T04:35:28.889Z,19.93
2018-05-27T04:37:57.164Z,19.92
2018-05-27T04:40:25.449Z,19.99
2018-05-27T04:42:53.722Z,20.11
2018-05-27T04:45:21.993Z,20.16
2018-05-27T04:47:50.281Z,20.26
2018-05-27T04:50:18.559Z,20.15
2018-05-27T04:52:46.842Z,20.32
2018-05-27T04:55:15.110Z,19.78
2018-05-27T04:57:43.400Z,20.22
2018-05-27T05:00:11.673Z,20.33
2018-05-27T05:02:39.950Z,20.38
2018-05-27T05:05:08.233Z,20.47
2018-05-27T05:07:36.503Z,20.54
2018-05-27T05:10:04.801Z,20.55
2018-05-27T05:12:33.077Z,20.48
2018-05-27T05:15:01.367Z,20.61
2018-05-27T05:17:29.641Z,20.63
2018-05-27T05:19:57.919Z,20.62
2018-05-27T05:22:26.202Z,20.34
2018-05-27T05:24:54.565Z,20.10
2018-05-27T05:27:22.850Z,20.12
2018-05-27T05:29:51.121Z,20.45
2018-05-27T05:32:19.409Z,20.64
2018-05-27T05:34:48.505Z,20.71
2018-05-27T05:37:16.790Z,20.82
2018-05-27T05:39:45.073Z,20.77
2018-05-27T05:42:13.362Z,20.79
2018-05-27T05:44:41.645Z,20.75
2018-05-27T05:47:09.917Z,20.91
2018-05-27T05:49:38.202Z,20.99
2018-05-27T05:52:06.475Z,21.10
2018-05-27T05:54:34.748Z,20.97
2018-05-27T05:57:03.034Z,21.02
2018-05-27T05:59:31.311Z,20.64
2018-05-27T06:01:59.602Z,20.69
2018-05-27T06:04:27.877Z,20.80
2018-05-27T06:06:56.162Z,20.82
2018-05-27T06:09:24.437Z,20.98
2018-05-27T06:11:52.714Z,21.17
2018-05-27T06:14:20.990Z,21.28
2018-05-27T06:16:49.266Z,21.38
2018-05-27T06:19:17.551Z,21.52
2018-05-27T06:21:45.821Z,21.57
2018-05-27T06:24:14.114Z,21.76
2018-05-27T06:26:42.395Z,21.84
2018-05-27T06:29:10.669Z,22.05
2018-05-27T06:31:38.953Z,22.14
2018-05-27T06:34:07.233Z,22.33
2018-05-27T06:36:35.510Z,22.50
2018-05-27T06:39:03.778Z,22.66
2018-05-27T06:41:32.069Z,22.57
2018-05-27T06:44:00.350Z,22.77
2018-05-27T06:46:28.635Z,23.01
2018-05-27T06:48:57.085Z,22.98
2018-05-27T06:51:25.354Z,23.04
2018-05-27T06:53:53.629Z,23.01
2018-05-27T06:56:21.894Z,23.38
2018-05-27T06:58:50.176Z,23.62
2018-05-27T07:01:18.438Z,23.80
2018-05-27T07:03:46.742Z,23.72
2018-05-27T07:06:15.032Z,24.08
2018-05-27T07:08:44.139Z,24.38
2018-05-27T07:11:12.421Z,24.00
2018-05-27T07:13:40.693Z,24.21
2018-05-27T07:16:08.973Z,24.46
2018-05-27T07:18:37.241Z,24.66
2018-05-27T07:21:05.517Z,24.40
2018-05-27T07:23:33.789Z,26.06
2018-05-27T07:26:02.066Z,25.23
2018-05-27T07:28:30.343Z,25.46
2018-05-27T07:30:58.609Z,25.50
2018-05-27T07:33:26.909Z,25.96
2018-05-27T07:35:55.186Z,25.54
2018-05-27T07:38:23.496Z,26.28
2018-05-27T07:40:51.810Z,26.98
2018-05-27T07:43:20.270Z,27.36
2018-05-27T07:45:48.549Z,27.47
2018-05-27T07:48:17.099Z,28.25
2018-05-27T07:50:45.629Z,27.95
2018-05-27T07:53:13.901Z,28.57
2018-05-27T07:55:42.172Z,28.99
2018-05-27T07:58:10.463Z,28.55
2018-05-27T08:00:38.718Z,28.10
2018-05-27T08:03:06.989Z,29.25
2018-05-27T08:05:35.329Z,28.35
2018-05-27T08:08:03.597Z,29.21
2018-05-27T08:10:31.880Z,28.99
2018-05-27T08:13:00.153Z,28.76
2018-05-27T08:15:28.427Z,29.02
2018-05-27T08:17:56.702Z,29.07
2018-05-27T08:20:24.977Z,29.05
2018-05-27T08:22:53.365Z,29.41
2018-05-27T08:25:21.714Z,29.42
2018-05-27T08:27:49.985Z,29.06
2018-05-27T08:30:18.289Z,27.49
2018-05-27T08:32:46.562Z,28.51
2018-05-27T08:35:14.852Z,29.09
2018-05-27T08:37:43.130Z,29.05
2018-05-27T08:40:11.416Z,29.93
2018-05-27T08:42:39.711Z,30.17
2018-05-27T08:45:07.969Z,29.95
2018-05-27T08:47:36.253Z,30.06
2018-05-27T08:50:04.521Z,30.36
2018-05-27T08:52:32.802Z,30.75
2018-05-27T08:55:01.073Z,29.93
2018-05-27T08:57:29.372Z,27.99
2018-05-27T08:59:57.649Z,28.86
2018-05-27T09:02:25.953Z,28.97
2018-05-27T09:04:54.221Z,28.50
2018-05-27T09:07:22.495Z,28.16
2018-05-27T09:09:50.782Z,29.80
2018-05-27T09:12:19.055Z,29.18
2018-05-27T09:14:47.338Z,30.29
2018-05-27T09:17:15.606Z,30.36
2018-05-27T09:19:43.861Z,30.09
2018-05-27T09:22:12.140Z,30.76
2018-05-27T09:24:40.407Z,30.16
2018-05-27T09:27:08.698Z,29.50
2018-05-27T09:29:36.998Z,29.86
2018-05-27T09:32:05.248Z,29.95
2018-05-27T09:34:33.543Z,30.07
2018-05-27T09:37:01.798Z,30.40
2018-05-27T09:39:30.080Z,30.54
2018-05-27T09:41:58.347Z,30.05
2018-05-27T09:44:26.650Z,29.74
2018-05-27T09:46:54.922Z,29.30
2018-05-27T09:49:23.216Z,29.44
2018-05-27T09:51:51.490Z,29.56
2018-05-27T09:54:19.762Z,30.92
2018-05-27T09:56:48.378Z,31.41
2018-05-27T09:59:16.774Z,30.50
2018-05-27T10:01:45.044Z,31.49
2018-05-27T10:04:13.309Z,31.35
2018-05-27T10:06:41.933Z,31.99
2018-05-27T10:09:10.205Z,31.89
2018-05-27T10:11:38.514Z,31.47
2018-05-27T10:14:06.798Z,31.62
2018-05-27T10:16:35.073Z,31.73
2018-05-27T10:19:03.472Z,30.54
2018-05-27T10:21:31.669Z,30.56
2018-05-27T10:23:59.949Z,30.57
2018-05-27T10:26:28.231Z,30.65
2018-05-27T10:29:01.510Z,30.46
2018-05-27T10:31:29.765Z,30.99
2018-05-27T10:33:58.105Z,30.29
2018-05-27T10:36:26.381Z,29.82
2018-05-27T10:38:54.645Z,29.95
2018-05-27T10:41:22.934Z,29.33
2018-05-27T10:43:51.209Z,29.25
2018-05-27T10:46:19.481Z,29.18
2018-05-27T10:48:47.751Z,28.81
2018-05-27T10:51:16.461Z,28.62
2018-05-27T10:53:44.732Z,28.66
2018-05-27T10:56:12.998Z,28.48
2018-05-27T10:58:41.286Z,28.29
2018-05-27T11:01:09.541Z,27.95
2018-05-27T11:03:37.833Z,27.64
2018-05-27T11:06:06.102Z,27.67
2018-05-27T11:08:34.624Z,27.62
2018-05-27T11:11:02.886Z,27.46
2018-05-27T11:13:31.152Z,27.27
2018-05-27T11:15:59.457Z,27.30
2018-05-27T11:18:27.717Z,27.42
2018-05-27T11:20:56.004Z,27.39
2018-05-27T11:23:24.257Z,27.28
2018-05-27T11:25:52.535Z,27.20
2018-05-27T11:28:20.799Z,27.11
2018-05-27T11:30:49.087Z,27.00
2018-05-27T11:33:17.353Z,27.01
2018-05-27T11:35:45.634Z,27.01
2018-05-27T11:38:13.909Z,27.05
2018-05-27T11:40:42.194Z,26.95
2018-05-27T11:43:10.461Z,27.03
2018-05-27T11:45:38.734Z,26.95
2018-05-27T11:48:07.011Z,26.88
2018-05-27T11:50:35.278Z,26.83
2018-05-27T11:53:03.569Z,26.77
2018-05-27T11:55:31.829Z,26.84
2018-05-27T11:58:00.101Z,26.78
2018-05-27T12:00:28.385Z,26.66
2018-05-27T12:02:56.707Z,26.68
2018-05-27T12:05:24.978Z,26.66
2018-05-27T12:07:53.246Z,26.23
2018-05-27T12:10:21.526Z,25.84
2018-05-27T12:12:49.789Z,25.52
2018-05-27T12:15:18.085Z,25.43
2018-05-27T12:17:46.354Z,25.26
2018-05-27T12:20:14.621Z,25.36
2018-05-27T12:22:42.893Z,25.13
2018-05-27T12:25:11.164Z,25.01
2018-05-27T12:27:39.440Z,25.00
2018-05-27T12:30:07.715Z,25.01
2018-05-27T12:32:35.993Z,25.02
2018-05-27T12:35:04.253Z,24.95
2018-05-27T12:37:32.534Z,24.93
2018-05-27T12:40:00.803Z,24.97
2018-05-27T12:42:29.088Z,25.01
2018-05-27T12:44:57.357Z,25.15
2018-05-27T12:47:25.651Z,25.25
2018-05-27T12:49:53.929Z,25.40
2018-05-27T12:52:22.825Z,25.49
2018-05-27T12:54:51.117Z,25.68
2018-05-27T12:57:19.383Z,25.37
2018-05-27T12:59:47.674Z,25.69
2018-05-27T13:02:15.963Z,26.16
2018-05-27T13:04:44.222Z,26.08
2018-05-27T13:07:12.490Z,26.32
2018-05-27T13:09:40.813Z,26.27
2018-05-27T13:12:09.085Z,26.19
2018-05-27T13:14:37.411Z,26.08
2018-05-27T13:17:05.706Z,25.93
2018-05-27T13:19:33.986Z,25.99
2018-05-27T13:22:02.274Z,25.97
2018-05-27T13:24:30.546Z,26.14
2018-05-27T13:26:58.827Z,26.52
2018-05-27T13:29:27.100Z,27.05
2018-05-27T13:31:55.386Z,27.13
2018-05-27T13:34:23.662Z,27.15
2018-05-27T13:36:51.957Z,26.80
2018-05-27T13:39:20.243Z,26.94
2018-05-27T13:41:48.526Z,26.78
2018-05-27T13:44:16.809Z,26.71
2018-05-27T13:46:45.100Z,27.09
2018-05-27T13:49:13.393Z,27.40
2018-05-27T13:51:42.554Z,27.58
2018-05-27T13:54:10.842Z,27.57
2018-05-27T13:56:39.118Z,27.12
2018-05-27T13:59:07.411Z,27.06
2018-05-27T14:01:35.698Z,27.03
2018-05-27T14:04:03.959Z,27.30
2018-05-27T14:06:32.322Z,27.53
2018-05-27T14:09:01.645Z,27.62
2018-05-27T14:11:29.926Z,27.48
2018-05-27T14:13:58.201Z,27.17
2018-05-27T14:16:26.479Z,26.97
2018-05-27T14:18:55.683Z,26.95
2018-05-27T14:21:24.919Z,27.18
2018-05-27T14:23:53.191Z,27.25
2018-05-27T14:26:21.502Z,27.06
2018-05-27T14:28:49.788Z,27.03
2018-05-27T14:31:18.068Z,26.93
2018-05-27T14:33:46.604Z,27.03
2018-05-27T14:36:14.842Z,26.99
2018-05-27T14:38:43.149Z,26.88
2018-05-27T14:41:11.430Z,26.97
2018-05-27T14:43:39.706Z,27.07
2018-05-27T14:46:07.981Z,26.91
2018-05-27T14:48:36.274Z,27.10
2018-05-27T14:51:04.547Z,27.23
2018-05-27T14:53:32.815Z,27.19
2018-05-27T14:56:01.098Z,27.16
2018-05-27T14:58:29.370Z,27.01
2018-05-27T15:00:57.658Z,27.11
2018-05-27T15:03:25.979Z,27.19
2018-05-27T15:05:54.280Z,27.09
2018-05-27T15:08:22.547Z,27.06
2018-05-27T15:10:50.819Z,27.00
2018-05-27T15:13:19.118Z,27.03
2018-05-27T15:15:47.393Z,27.13
2018-05-27T15:18:15.664Z,27.06
2018-05-27T15:20:43.942Z,27.25
2018-05-27T15:23:12.439Z,27.23
2018-05-27T15:25:40.694Z,27.33
2018-05-27T15:28:08.964Z,27.25
2018-05-27T15:30:37.238Z,27.26
2018-05-27T15:33:05.512Z,27.17
2018-05-27T15:35:34.010Z,27.04
2018-05-27T15:38:02.278Z,27.08
2018-05-27T15:40:30.563Z,26.98
2018-05-27T15:42:58.837Z,26.78
2018-05-27T15:45:27.102Z,26.82
2018-05-27T15:47:55.394Z,26.67
2018-05-27T15:50:23.918Z,26.70
2018-05-27T15:52:52.277Z,26.67
2018-05-27T15:55:20.602Z,26.58
2018-05-27T15:57:48.887Z,26.54
2018-05-27T16:00:17.190Z,26.52
2018-05-27T16:02:45.474Z,26.44
2018-05-27T16:05:13.775Z,26.39
2018-05-27T16:07:42.074Z,26.37
2018-05-27T16:10:10.363Z,26.40
2018-05-27T16:12:38.850Z,26.43
2018-05-27T16:15:07.135Z,26.48
2018-05-27T16:17:35.418Z,26.50
2018-05-27T16:20:03.724Z,26.52
2018-05-27T16:22:31.994Z,26.39
2018-05-27T16:25:00.306Z,26.48
2018-05-27T16:27:28.566Z,26.49
2018-05-27T16:29:56.845Z,26.48
2018-05-27T16:32:25.192Z,26.37
2018-05-27T16:34:53.416Z,26.40
2018-05-27T16:37:23.873Z,26.37
2018-05-27T16:39:52.155Z,26.35
2018-05-27T16:42:20.431Z,26.29
2018-05-27T16:44:48.891Z,26.34
2018-05-27T16:47:17.190Z,26.28
2018-05-27T16:49:45.486Z,26.13
2018-05-27T16:52:13.759Z,26.08
2018-05-27T16:54:42.046Z,26.00
2018-05-27T16:57:10.317Z,26.01
2018-05-27T16:59:38.587Z,25.78
2018-05-27T17:02:06.878Z,25.64
2018-05-27T17:04:35.158Z,25.83
2018-05-27T17:07:03.438Z,25.71
2018-05-27T17:09:31.718Z,25.55
2018-05-27T17:12:00.355Z,25.56
2018-05-27T17:14:28.618Z,25.45
2018-05-27T17:16:56.897Z,25.31
2018-05-27T17:19:25.193Z,25.35
2018-05-27T17:21:53.463Z,25.39
2018-05-27T17:24:21.749Z,25.19
2018-05-27T17:26:50.027Z,25.24
2018-05-27T17:29:18.712Z,25.04
2018-05-27T17:31:47.007Z,25.19
2018-05-27T17:34:15.297Z,25.08
2018-05-27T17:36:43.643Z,25.10
2018-05-27T17:39:11.922Z,25.04
2018-05-27T17:41:40.210Z,25.04
2018-05-27T17:44:08.611Z,25.08
2018-05-27T17:46:36.898Z,24.98
2018-05-27T17:49:05.187Z,24.81
2018-05-27T17:51:34.379Z,24.78
2018-05-27T17:54:02.674Z,24.84
2018-05-27T17:56:31.199Z,24.80
2018-05-27T17:58:59.486Z,24.34
2018-05-27T18:01:27.783Z,23.60
2018-05-27T18:03:56.076Z,23.52
2018-05-27T18:06:24.366Z,23.25
2018-05-27T18:08:52.656Z,23.31
2018-05-27T18:11:20.978Z,23.64
2018-05-27T18:13:55.178Z,23.60
2018-05-27T18:16:23.459Z,23.58
2018-05-27T18:18:51.749Z,23.48
2018-05-27T18:21:20.333Z,23.40
2018-05-27T18:23:48.645Z,23.28
2018-05-27T18:26:16.888Z,23.27
2018-05-27T18:28:45.201Z,23.32
2018-05-27T18:31:13.668Z,23.01
2018-05-27T18:33:41.963Z,23.18
2018-05-27T18:36:10.276Z,23.23
2018-05-27T18:38:38.875Z,23.07
2018-05-27T18:41:07.134Z,22.98
2018-05-27T18:43:35.426Z,22.92
2018-05-27T18:46:03.717Z,22.80
2018-05-27T18:48:32.011Z,22.72
2018-05-27T18:51:00.311Z,22.64
2018-05-27T18:53:28.650Z,22.65
2018-05-27T18:55:56.899Z,22.46
2018-05-27T18:58:25.186Z,22.70
2018-05-27T19:00:53.482Z,22.52
2018-05-27T19:03:21.775Z,22.63
2018-05-27T19:05:50.195Z,22.33
2018-05-27T19:08:18.485Z,22.55
2018-05-27T19:10:46.762Z,22.50
2018-05-27T19:13:15.054Z,22.38
2018-05-27T19:15:43.325Z,22.39
2018-05-27T19:18:11.614Z,22.32
2018-05-27T19:20:39.918Z,22.18
2018-05-27T19:23:08.210Z,21.97
2018-05-27T19:25:36.519Z,22.30
2018-05-27T19:28:04.802Z,22.03
2018-05-27T19:30:33.086Z,22.24
2018-05-27T19:33:01.367Z,22.15
2018-05-27T19:35:29.643Z,22.12
2018-05-27T19:37:57.926Z,22.10
2018-05-27T19:40:26.195Z,21.97
2018-05-27T19:42:54.483Z,21.80
2018-05-27T19:45:22.758Z,21.81
2018-05-27T19:47:51.050Z,21.85
2018-05-27T19:50:19.361Z,21.77
2018-05-27T19:52:47.639Z,21.64
2018-05-27T19:55:15.986Z,21.65
2018-05-27T19:57:44.304Z,21.66
2018-05-27T20:00:12.610Z,21.44
2018-05-27T20:02:40.893Z,21.66
2018-05-27T20:05:09.184Z,21.54
2018-05-27T20:07:37.465Z,21.16
2018-05-27T20:10:05.986Z,21.05
2018-05-27T20:12:34.273Z,21.12
2018-05-27T20:15:02.585Z,20.76
2018-05-27T20:17:30.847Z,20.91
2018-05-27T20:19:59.125Z,21.07
2018-05-27T20:22:27.406Z,20.90
2018-05-27T20:24:55.685Z,21.01
2018-05-27T20:27:23.966Z,21.00
2018-05-27T20:29:52.246Z,21.09
2018-05-27T20:32:20.552Z,21.30
2018-05-27T20:34:48.844Z,21.29
2018-05-27T20:37:17.130Z,21.38
2018-05-27T20:39:45.578Z,20.96
2018-05-27T20:42:13.863Z,21.04
2018-05-27T20:44:42.138Z,20.72
2018-05-27T20:47:10.414Z,20.36
2018-05-27T20:49:38.712Z,20.62
2018-05-27T20:52:06.991Z,20.30
2018-05-27T20:54:35.278Z,20.37
2018-05-27T20:57:03.571Z,20.01
2018-05-27T20:59:31.849Z,20.34
2018-05-27T21:02:00.123Z,20.23
2018-05-27T21:04:28.414Z,20.46
2018-05-27T21:06:56.686Z,20.42
2018-05-27T21:09:24.970Z,20.48
2018-05-27T21:11:53.250Z,20.25
2018-05-27T21:14:21.534Z,20.41
2018-05-27T21:16:49.810Z,20.37
2018-05-27T21:19:18.406Z,20.13
2018-05-27T21:21:46.690Z,20.04
2018-05-27T21:24:14.971Z,19.85
2018-05-27T21:26:43.262Z,19.70
2018-05-27T21:29:11.534Z,19.72
2018-05-27T21:31:40.170Z,19.74
2018-05-27T21:34:08.450Z,19.71
2018-05-27T21:36:36.722Z,19.72
2018-05-27T21:39:05.709Z,19.78
2018-05-27T21:41:33.990Z,19.58
2018-05-27T21:44:02.274Z,19.58
2018-05-27T21:46:30.550Z,19.52
2018-05-27T21:48:58.858Z,19.42
2018-05-27T21:51:27.139Z,19.33
2018-05-27T21:53:55.435Z,19.54
2018-05-27T21:56:23.722Z,19.66
2018-05-27T21:58:51.998Z,19.75
2018-05-27T22:01:20.278Z,19.78
2018-05-27T22:03:48.553Z,19.59
2018-05-27T22:06:16.846Z,19.87
2018-05-27T22:08:45.125Z,19.95
2018-05-27T22:11:13.402Z,20.11
2018-05-27T22:13:41.678Z,20.06
2018-05-27T22:16:09.953Z,20.23
2018-05-27T22:18:38.241Z,20.05
2018-05-27T22:21:06.516Z,20.30
2018-05-27T22:23:34.812Z,20.28
2018-05-27T22:26:03.085Z,20.27
2018-05-27T22:28:31.691Z,20.11
2018-05-27T22:30:59.969Z,20.10
2018-05-27T22:33:28.242Z,20.07
2018-05-27T22:35:56.529Z,20.10
2018-05-27T22:38:24.814Z,20.05
2018-05-27T22:40:53.098Z,20.12
2018-05-27T22:43:21.371Z,20.18
2018-05-27T22:45:49.650Z,19.99
2018-05-27T22:48:17.937Z,20.11
2018-05-27T22:50:46.226Z,19.99
2018-05-27T22:53:14.509Z,19.86
2018-05-27T22:55:42.786Z,19.83
2018-05-27T22:58:11.066Z,19.87
2018-05-27T23:00:39.338Z,19.92
2018-05-27T23:03:07.616Z,19.77
2018-05-27T23:05:35.890Z,19.92
2018-05-27T23:08:04.158Z,20.07
2018-05-27T23:10:33.398Z,20.00
2018-05-27T23:13:01.674Z,20.05
2018-05-27T23:15:29.965Z,20.03
2018-05-27T23:17:58.242Z,19.95
2018-05-27T23:20:26.514Z,19.98
2018-05-27T23:22:54.818Z,19.57
2018-05-27T23:25:23.082Z,19.30
2018-05-27T23:27:51.379Z,19.77
2018-05-27T23:30:19.647Z,19.68
2018-05-27T23:32:47.936Z,19.70
2018-05-27T23:35:16.201Z,19.66
2018-05-27T23:37:44.477Z,19.70
2018-05-27T23:40:12.758Z,19.75
2018-05-27T23:42:41.042Z,19.52
2018-05-27T23:45:09.321Z,19.46
2018-05-27T23:47:37.589Z,19.58
2018-05-27T23:50:06.655Z,19.62
2018-05-27T23:52:34.931Z,19.48
2018-05-27T23:55:03.196Z,19.66
2018-05-27T23:57:31.498Z,19.37
2018-05-27T23:59:59.769Z,19.48
